N2611 -KBED
Flight info
| Callsign | N2611 |
|---|---|
| Flight time | N/A |
| Altitude | VFR/035 |
| Route | |
| Aircraft | H135/L-DOV/C |
Departure
| Time | N/A |
|---|---|
| Airport | - |
Arrival
| Time | 2026-04-13 20:10 |
|---|---|
| Airport | Laurence G Hanscom Field (KBED) |
| Time | Latitude | Longitude | Altitude | Speed | Heading |
|---|---|---|---|---|---|
| 2026-04-13 19:26 | 41.21169 | -73.00907 | 3494 ft | 139 kts | 45° |
| 2026-04-13 19:27 | 41.21703 | -72.99835 | 3492 ft | 139 kts | 44° |
| 2026-04-13 19:27 | 41.22233 | -72.98750 | 3491 ft | 140 kts | 45° |
| 2026-04-13 19:27 | 41.22763 | -72.97665 | 3497 ft | 140 kts | 45° |
| 2026-04-13 19:27 | 41.23295 | -72.96587 | 3500 ft | 139 kts | 44° |
| 2026-04-13 19:28 | 41.23836 | -72.95521 | 3502 ft | 139 kts | 44° |
| 2026-04-13 19:28 | 41.24372 | -72.94460 | 3493 ft | 138 kts | 43° |
| 2026-04-13 19:28 | 41.24903 | -72.93401 | 3491 ft | 137 kts | 43° |
| 2026-04-13 19:28 | 41.25433 | -72.92346 | 3494 ft | 137 kts | 43° |
| 2026-04-13 19:29 | 41.25959 | -72.91293 | 3494 ft | 137 kts | 43° |
| 2026-04-13 19:29 | 41.26482 | -72.90238 | 3494 ft | 136 kts | 43° |
| 2026-04-13 19:29 | 41.26997 | -72.89198 | 3497 ft | 136 kts | 43° |
| 2026-04-13 19:29 | 41.27513 | -72.88147 | 3497 ft | 135 kts | 43° |
| 2026-04-13 19:30 | 41.28038 | -72.87103 | 3519 ft | 138 kts | 42° |
| 2026-04-13 19:30 | 41.28676 | -72.86143 | 3640 ft | 141 kts | 18° |
| 2026-04-13 19:30 | 41.29565 | -72.85408 | 3582 ft | 156 kts | 14° |
| 2026-04-13 19:30 | 41.30515 | -72.84701 | 3537 ft | 156 kts | 12° |
| 2026-04-13 19:31 | 41.31457 | -72.84012 | 3524 ft | 154 kts | 12° |
| 2026-04-13 19:31 | 41.32397 | -72.83335 | 3516 ft | 153 kts | 12° |
| 2026-04-13 19:31 | 41.33326 | -72.82658 | 3509 ft | 151 kts | 12° |
| 2026-04-13 19:31 | 41.34249 | -72.81980 | 3514 ft | 152 kts | 12° |
| 2026-04-13 19:32 | 41.35180 | -72.81307 | 3521 ft | 154 kts | 12° |
| 2026-04-13 19:32 | 41.36124 | -72.80642 | 3509 ft | 152 kts | 12° |
| 2026-04-13 19:32 | 41.37051 | -72.79977 | 3512 ft | 151 kts | 12° |
| 2026-04-13 19:32 | 41.37973 | -72.79311 | 3487 ft | 151 kts | 11° |
| 2026-04-13 19:33 | 41.38889 | -72.78635 | 3485 ft | 150 kts | 12° |
| 2026-04-13 19:33 | 41.39800 | -72.77957 | 3494 ft | 149 kts | 12° |
| 2026-04-13 19:33 | 41.40710 | -72.77280 | 3492 ft | 150 kts | 12° |
| 2026-04-13 19:34 | 41.42521 | -72.75955 | 3495 ft | 149 kts | 12° |
| 2026-04-13 19:34 | 41.43432 | -72.75293 | 3499 ft | 150 kts | 11° |
| 2026-04-13 19:34 | 41.44357 | -72.74617 | 3487 ft | 152 kts | 12° |
| 2026-04-13 19:34 | 41.45277 | -72.73960 | 3523 ft | 150 kts | 10° |
| 2026-04-13 19:35 | 41.46217 | -72.73356 | 3530 ft | 151 kts | 7° |
| 2026-04-13 19:35 | 41.47165 | -72.72780 | 3515 ft | 149 kts | 7° |
| 2026-04-13 19:35 | 41.48112 | -72.72214 | 3499 ft | 148 kts | 7° |
| 2026-04-13 19:35 | 41.49045 | -72.71648 | 3499 ft | 147 kts | 6° |
| 2026-04-13 19:36 | 41.49986 | -72.71078 | 3500 ft | 149 kts | 6° |
| 2026-04-13 19:36 | 41.50934 | -72.70503 | 3493 ft | 149 kts | 6° |
| 2026-04-13 19:36 | 41.51874 | -72.69933 | 3510 ft | 149 kts | 6° |
| 2026-04-13 19:36 | 41.52855 | -72.69491 | 3564 ft | 152 kts | 359° |
| 2026-04-13 19:37 | 41.53878 | -72.69111 | 3535 ft | 153 kts | 357° |
| 2026-04-13 19:37 | 41.54912 | -72.68749 | 3505 ft | 154 kts | 356° |
| 2026-04-13 19:37 | 41.55934 | -72.68381 | 3497 ft | 151 kts | 356° |
| 2026-04-13 19:37 | 41.56934 | -72.68020 | 3495 ft | 147 kts | 356° |
| 2026-04-13 19:38 | 41.57921 | -72.67661 | 3507 ft | 147 kts | 356° |
| 2026-04-13 19:38 | 41.58903 | -72.67311 | 3509 ft | 146 kts | 356° |
| 2026-04-13 19:38 | 41.59884 | -72.66963 | 3474 ft | 145 kts | 356° |
| 2026-04-13 19:38 | 41.60868 | -72.66660 | 3538 ft | 147 kts | 352° |
| 2026-04-13 19:39 | 41.61909 | -72.66497 | 3525 ft | 152 kts | 348° |
| 2026-04-13 19:39 | 41.62959 | -72.66389 | 3494 ft | 150 kts | 347° |
| 2026-04-13 19:39 | 41.63986 | -72.66301 | 3477 ft | 146 kts | 347° |
| 2026-04-13 19:39 | 41.64990 | -72.66214 | 3469 ft | 143 kts | 347° |
| 2026-04-13 19:40 | 41.65979 | -72.66124 | 3474 ft | 141 kts | 346° |
| 2026-04-13 19:40 | 41.66959 | -72.66017 | 3473 ft | 142 kts | 346° |
| 2026-04-13 19:40 | 41.67951 | -72.65909 | 3478 ft | 144 kts | 347° |
| 2026-04-13 19:40 | 41.68961 | -72.65811 | 3472 ft | 146 kts | 346° |
| 2026-04-13 19:41 | 41.69957 | -72.65662 | 3377 ft | 146 kts | 5° |
| 2026-04-13 19:41 | 41.70762 | -72.64759 | 3342 ft | 150 kts | 33° |
| 2026-04-13 19:41 | 41.71459 | -72.63755 | 3402 ft | 149 kts | 35° |
| 2026-04-13 19:42 | 41.72851 | -72.61625 | 3425 ft | 153 kts | 38° |
| 2026-04-13 19:42 | 41.73538 | -72.60523 | 3432 ft | 155 kts | 39° |
| 2026-04-13 19:42 | 41.74234 | -72.59403 | 3435 ft | 157 kts | 39° |
| 2026-04-13 19:42 | 41.74938 | -72.58279 | 3436 ft | 158 kts | 39° |
| 2026-04-13 19:43 | 41.75645 | -72.57146 | 3435 ft | 158 kts | 39° |
| 2026-04-13 19:43 | 41.76343 | -72.56016 | 3429 ft | 157 kts | 39° |
| 2026-04-13 19:43 | 41.77038 | -72.54889 | 3433 ft | 156 kts | 39° |
| 2026-04-13 19:43 | 41.77732 | -72.53769 | 3437 ft | 156 kts | 39° |
| 2026-04-13 19:44 | 41.78421 | -72.52656 | 3437 ft | 154 kts | 39° |
| 2026-04-13 19:44 | 41.79091 | -72.51572 | 3446 ft | 154 kts | 39° |
| 2026-04-13 19:44 | 41.79792 | -72.50451 | 3448 ft | 155 kts | 39° |
| 2026-04-13 19:44 | 41.80482 | -72.49363 | 3445 ft | 155 kts | 39° |
| 2026-04-13 19:45 | 41.81178 | -72.48264 | 3445 ft | 154 kts | 39° |
| 2026-04-13 19:45 | 41.81866 | -72.47174 | 3445 ft | 151 kts | 39° |
| 2026-04-13 19:45 | 41.82533 | -72.46104 | 3451 ft | 148 kts | 39° |
| 2026-04-13 19:45 | 41.83192 | -72.45051 | 3461 ft | 147 kts | 39° |
| 2026-04-13 19:46 | 41.83849 | -72.43997 | 3462 ft | 147 kts | 39° |
| 2026-04-13 19:46 | 41.84513 | -72.42968 | 3470 ft | 145 kts | 39° |
| 2026-04-13 19:46 | 41.85174 | -72.41956 | 3468 ft | 144 kts | 39° |
| 2026-04-13 19:46 | 41.85824 | -72.40926 | 3480 ft | 146 kts | 40° |
| 2026-04-13 19:47 | 41.86474 | -72.39874 | 3484 ft | 151 kts | 40° |
| 2026-04-13 19:47 | 41.87155 | -72.38780 | 3475 ft | 154 kts | 40° |
| 2026-04-13 19:47 | 41.87860 | -72.37656 | 3467 ft | 159 kts | 40° |
| 2026-04-13 19:47 | 41.88580 | -72.36511 | 3463 ft | 161 kts | 41° |
| 2026-04-13 19:48 | 41.89305 | -72.35355 | 3452 ft | 162 kts | 40° |
| 2026-04-13 19:48 | 41.90042 | -72.34173 | 3514 ft | 167 kts | 41° |
| 2026-04-13 19:48 | 41.90804 | -72.32975 | 3523 ft | 169 kts | 41° |
| 2026-04-13 19:48 | 41.91569 | -72.31775 | 3529 ft | 169 kts | 41° |
| 2026-04-13 19:49 | 41.92331 | -72.30575 | 3529 ft | 169 kts | 40° |
| 2026-04-13 19:49 | 41.93087 | -72.29365 | 3523 ft | 169 kts | 41° |
| 2026-04-13 19:49 | 41.93832 | -72.28166 | 3519 ft | 169 kts | 41° |
| 2026-04-13 19:49 | 41.94585 | -72.26952 | 3528 ft | 169 kts | 41° |
| 2026-04-13 19:50 | 41.95341 | -72.25742 | 3524 ft | 169 kts | 41° |
| 2026-04-13 19:50 | 41.96099 | -72.24527 | 3523 ft | 169 kts | 41° |
| 2026-04-13 19:50 | 41.96857 | -72.23319 | 3520 ft | 169 kts | 41° |
| 2026-04-13 19:50 | 41.97619 | -72.22116 | 3523 ft | 169 kts | 41° |
| 2026-04-13 19:51 | 41.98380 | -72.20914 | 3523 ft | 169 kts | 41° |
| 2026-04-13 19:51 | 41.99143 | -72.19716 | 3524 ft | 169 kts | 41° |
| 2026-04-13 19:51 | 41.99908 | -72.18518 | 3522 ft | 169 kts | 40° |
| 2026-04-13 19:51 | 42.00673 | -72.17319 | 3521 ft | 169 kts | 40° |
| 2026-04-13 19:52 | 42.01438 | -72.16120 | 3520 ft | 169 kts | 40° |
| 2026-04-13 19:52 | 42.02201 | -72.14917 | 3525 ft | 169 kts | 41° |
| 2026-04-13 19:52 | 42.02969 | -72.13727 | 3523 ft | 168 kts | 41° |
| 2026-04-13 19:52 | 42.03739 | -72.12538 | 3518 ft | 169 kts | 41° |
| 2026-04-13 19:53 | 42.04512 | -72.11352 | 3510 ft | 169 kts | 40° |
| 2026-04-13 19:53 | 42.05276 | -72.10151 | 3506 ft | 169 kts | 40° |
| 2026-04-13 19:53 | 42.06030 | -72.08958 | 3505 ft | 169 kts | 41° |
| 2026-04-13 19:53 | 42.06793 | -72.07757 | 3504 ft | 169 kts | 41° |
| 2026-04-13 19:54 | 42.07561 | -72.06557 | 3510 ft | 169 kts | 41° |
| 2026-04-13 19:54 | 42.08325 | -72.05352 | 3506 ft | 169 kts | 40° |
| 2026-04-13 19:54 | 42.09082 | -72.04141 | 3497 ft | 169 kts | 40° |
| 2026-04-13 19:54 | 42.09841 | -72.02929 | 3497 ft | 169 kts | 40° |
| 2026-04-13 19:55 | 42.10604 | -72.01723 | 3499 ft | 169 kts | 41° |
| 2026-04-13 19:55 | 42.11368 | -72.00525 | 3491 ft | 169 kts | 41° |
| 2026-04-13 19:55 | 42.12127 | -71.99344 | 3489 ft | 168 kts | 41° |
| 2026-04-13 19:55 | 42.12879 | -71.98165 | 3059 ft | 164 kts | 65° |
| 2026-04-13 19:56 | 42.13157 | -71.96697 | 2064 ft | 164 kts | 88° |
| 2026-04-13 19:56 | 42.13573 | -71.95366 | 1988 ft | 146 kts | 44° |
| 2026-04-13 19:56 | 42.14269 | -71.94411 | 2429 ft | 144 kts | 42° |
| 2026-04-13 19:56 | 42.14930 | -71.93383 | 2782 ft | 146 kts | 44° |
| 2026-04-13 19:57 | 42.15564 | -71.92322 | 3132 ft | 145 kts | 45° |
| 2026-04-13 19:57 | 42.16177 | -71.91223 | 3401 ft | 150 kts | 45° |
| 2026-04-13 19:57 | 42.16797 | -71.90059 | 3475 ft | 160 kts | 49° |
| 2026-04-13 19:57 | 42.17437 | -71.88790 | 3484 ft | 167 kts | 50° |
| 2026-04-13 19:58 | 42.18415 | -71.88045 | 3546 ft | 171 kts | 354° |
| 2026-04-13 19:58 | 42.19591 | -71.87836 | 3456 ft | 169 kts | 354° |
| 2026-04-13 19:58 | 42.20730 | -71.87559 | 3470 ft | 165 kts | 355° |
| 2026-04-13 19:58 | 42.21853 | -71.87258 | 3484 ft | 165 kts | 356° |
| 2026-04-13 19:59 | 42.22982 | -71.86967 | 3500 ft | 166 kts | 357° |
| 2026-04-13 19:59 | 42.24126 | -71.86695 | 3496 ft | 168 kts | 356° |
| 2026-04-13 19:59 | 42.25130 | -71.85954 | 3388 ft | 168 kts | 32° |
| 2026-04-13 19:59 | 42.25918 | -71.84789 | 3407 ft | 168 kts | 43° |
| 2026-04-13 20:00 | 42.26590 | -71.83502 | 3409 ft | 167 kts | 59° |
| 2026-04-13 20:00 | 42.27051 | -71.82060 | 3446 ft | 167 kts | 65° |
| 2026-04-13 20:00 | 42.27475 | -71.80602 | 3466 ft | 167 kts | 66° |
| 2026-04-13 20:00 | 42.27895 | -71.79131 | 3470 ft | 167 kts | 66° |
| 2026-04-13 20:01 | 42.28321 | -71.77672 | 3480 ft | 167 kts | 66° |
| 2026-04-13 20:01 | 42.28755 | -71.76215 | 3490 ft | 167 kts | 66° |
| 2026-04-13 20:01 | 42.29184 | -71.74759 | 3479 ft | 167 kts | 66° |
| 2026-04-13 20:01 | 42.29604 | -71.73297 | 3476 ft | 167 kts | 66° |
| 2026-04-13 20:02 | 42.30024 | -71.71833 | 3479 ft | 167 kts | 66° |
| 2026-04-13 20:02 | 42.30443 | -71.70368 | 3482 ft | 167 kts | 66° |
| 2026-04-13 20:02 | 42.30861 | -71.68903 | 3483 ft | 167 kts | 66° |
| 2026-04-13 20:02 | 42.31282 | -71.67440 | 3489 ft | 167 kts | 66° |
| 2026-04-13 20:03 | 42.31704 | -71.65979 | 3496 ft | 167 kts | 66° |
| 2026-04-13 20:03 | 42.32125 | -71.64515 | 3492 ft | 167 kts | 66° |
| 2026-04-13 20:03 | 42.32544 | -71.63048 | 3495 ft | 167 kts | 66° |
| 2026-04-13 20:03 | 42.32962 | -71.61582 | 3491 ft | 167 kts | 66° |
| 2026-04-13 20:04 | 42.33372 | -71.60133 | 3491 ft | 167 kts | 66° |
| 2026-04-13 20:04 | 42.33792 | -71.58667 | 3492 ft | 167 kts | 66° |
| 2026-04-13 20:04 | 42.34216 | -71.57200 | 3490 ft | 167 kts | 66° |
| 2026-04-13 20:04 | 42.34633 | -71.55732 | 3479 ft | 167 kts | 66° |
| 2026-04-13 20:05 | 42.35057 | -71.54271 | 3470 ft | 167 kts | 66° |
| 2026-04-13 20:05 | 42.35477 | -71.52805 | 3471 ft | 167 kts | 65° |
| 2026-04-13 20:05 | 42.35890 | -71.51336 | 3464 ft | 167 kts | 66° |
| 2026-04-13 20:05 | 42.36312 | -71.49867 | 3463 ft | 167 kts | 66° |
| 2026-04-13 20:06 | 42.36721 | -71.48395 | 3464 ft | 167 kts | 66° |
| 2026-04-13 20:06 | 42.37126 | -71.46921 | 3467 ft | 167 kts | 66° |
| 2026-04-13 20:06 | 42.37532 | -71.45446 | 3464 ft | 167 kts | 66° |
| 2026-04-13 20:06 | 42.37801 | -71.44468 | 3465 ft | 167 kts | 66° |
| 2026-04-13 20:07 | 42.38217 | -71.42997 | 3467 ft | 167 kts | 66° |
| 2026-04-13 20:07 | 42.38775 | -71.41053 | 3456 ft | 167 kts | 66° |
| 2026-04-13 20:07 | 42.39229 | -71.39616 | 3479 ft | 164 kts | 50° |
| 2026-04-13 20:07 | 42.39936 | -71.38383 | 3476 ft | 168 kts | 43° |
| 2026-04-13 20:08 | 42.40438 | -71.37575 | 3113 ft | 163 kts | 41° |
| 2026-04-13 20:08 | 42.41226 | -71.36487 | 2067 ft | 162 kts | 39° |
| 2026-04-13 20:08 | 42.42072 | -71.35460 | 1802 ft | 159 kts | 37° |
| 2026-04-13 20:08 | 42.42872 | -71.34510 | 1820 ft | 152 kts | 36° |
| 2026-04-13 20:09 | 42.43660 | -71.33564 | 1778 ft | 151 kts | 36° |
| 2026-04-13 20:09 | 42.44475 | -71.32600 | 1490 ft | 158 kts | 36° |
| 2026-04-13 20:09 | 42.45305 | -71.31652 | 991 ft | 153 kts | 36° |
| 2026-04-13 20:09 | 42.46068 | -71.30820 | 744 ft | 111 kts | 36° |
| 2026-04-13 20:10 | 42.46541 | -71.30291 | 743 ft | 69 kts | 36° |
| 2026-04-13 20:10 | 42.46830 | -71.29949 | 732 ft | 43 kts | 37° |
| 2026-04-13 20:10 | 42.46962 | -71.29793 | 642 ft | 7 kts | 37° |
| 2026-04-13 20:10 | 42.46953 | -71.29782 | 740 ft | 14 kts | 54° |
| 2026-04-13 20:11 | 42.47323 | -71.29655 | 410 ft | 92 kts | 105° |
| 2026-04-13 20:11 | 42.47796 | -71.29284 | 600 ft | 63 kts | 113° |
| 2026-04-13 20:11 | 42.47747 | -71.28713 | 657 ft | 62 kts | 197° |
| 2026-04-13 20:11 | 42.47405 | -71.28636 | 545 ft | 57 kts | 221° |
| 2026-04-13 20:12 | 42.47091 | -71.28995 | 308 ft | 55 kts | 212° |
| 2026-04-13 20:12 | 42.46823 | -71.29228 | 218 ft | 33 kts | 213° |
| 2026-04-13 20:12 | 42.46696 | -71.29378 | 224 ft | 24 kts | 221° |
| 2026-04-13 20:12 | 42.46546 | -71.29535 | 196 ft | 24 kts | 216° |
| 2026-04-13 20:13 | 42.46446 | -71.29613 | 172 ft | 11 kts | 212° |
| 2026-04-13 20:13 | 42.46394 | -71.29638 | 185 ft | 10 kts | 214° |
| 2026-04-13 20:13 | 42.46290 | -71.29550 | 165 ft | 30 kts | 158° |
| 2026-04-13 20:13 | 42.46303 | -71.29370 | 133 ft | 15 kts | 52° |
| 2026-04-13 20:14 | 42.46339 | -71.29334 | 139 ft | 9 kts | 31° |
| 2026-04-13 20:14 | 42.46393 | -71.29280 | 135 ft | 14 kts | 84° |
| 2026-04-13 20:14 | 42.46432 | -71.29225 | 141 ft | 7 kts | 139° |
| 2026-04-13 20:14 | 42.46425 | -71.29133 | 141 ft | 4 kts | 144° |
| 2026-04-13 20:15 | 42.46427 | -71.29120 | 136 ft | 2 kts | 202° |
| 2026-04-13 20:15 | 42.46434 | -71.29103 | 134 ft | 0 kts | 205° |